Aviation Digital Data Service (ADDS)

Output produced by METARs form (0620 UTC 19 March 2019)
found at http://www.aviationweather.gov/metar/data/
 
METAR text: VEAT 190600Z 27003KT 5000 HZ SCT018 BKN100 30/21 Q1012 TEMPO 3000 -RA
Conditions at: VEAT (AGARTALA , IN) observed 0600 UTC 19 March 2019
Temperature: 30.0°C (86°F)
Dewpoint: 21.0°C (70°F) [RH = 59%]
Pressure (altimeter): 29.88 inches Hg (1012.0 mb)
Winds: from the W (270 degrees) at 3 MPH (3 knots; 1.5 m/s)
Visibility: 3 miles ( 5 km)
Ceiling: 10000 feet AGL
Clouds: scattered clouds at 1800 feet AGL
broken clouds at 10000 feet AGL
Weather: HZ  (haze)

METAR text: VEAT 190530Z 27002KT 5000 HZ BKN100 30/21 Q1012 NOSIG
Conditions at: VEAT (AGARTALA , IN) observed 0530 UTC 19 March 2019
Temperature: 30.0°C (86°F)
Dewpoint: 21.0°C (70°F) [RH = 59%]
Pressure (altimeter): 29.88 inches Hg (1012.0 mb)
Winds: from the W (270 degrees) at 2 MPH (2 knots; 1.0 m/s)
Visibility: 3 miles ( 5 km)
Ceiling: 10000 feet AGL
Clouds: broken clouds at 10000 feet AGL
Weather: HZ  (haze)

METAR text: VEAT 190500Z 00000KT 5000 HZ SCT100 30/21 Q1012 NOSIG
Conditions at: VEAT (AGARTALA , IN) observed 0500 UTC 19 March 2019
Temperature: 30.0°C (86°F)
Dewpoint: 21.0°C (70°F) [RH = 59%]
Pressure (altimeter): 29.88 inches Hg (1012.0 mb)
Winds: calm
Visibility: 3 miles ( 5 km)
Ceiling: at least 12,000 feet AGL
Clouds: scattered clouds at 10000 feet AGL
Weather: HZ  (haze)

METAR text: VEAT 190430Z 00000KT 4000 HZ SCT100 29/18 Q1013 BECMG 5000 HZ
Conditions at: VEAT (AGARTALA , IN) observed 0430 UTC 19 March 2019
Temperature: 29.0°C (84°F)
Dewpoint: 18.0°C (64°F) [RH = 52%]
Pressure (altimeter): 29.91 inches Hg (1013.0 mb)
Winds: calm
Visibility: 2.49 miles (4.01 km)
Ceiling: at least 12,000 feet AGL
Clouds: scattered clouds at 10000 feet AGL
Weather: HZ  (haze)

METAR text: VEAT 190400Z 00000KT 3500 HZ SCT100 28/19 Q1013 BECMG 5000 HZ
Conditions at: VEAT (AGARTALA , IN) observed 0400 UTC 19 March 2019
Temperature: 28.0°C (82°F)
Dewpoint: 19.0°C (66°F) [RH = 58%]
Pressure (altimeter): 29.91 inches Hg (1013.0 mb)
Winds: calm
Visibility: 2.17 miles (3.49 km)
Ceiling: at least 12,000 feet AGL
Clouds: scattered clouds at 10000 feet AGL
Weather: HZ  (haze)

METAR text: VEAT 190330Z 00000KT 2500 HZ BKN100 27/22 Q1013 BECMG 3000 HZ
Conditions at: VEAT (AGARTALA , IN) observed 0330 UTC 19 March 2019
Temperature: 27.0°C (81°F)
Dewpoint: 22.0°C (72°F) [RH = 74%]
Pressure (altimeter): 29.91 inches Hg (1013.0 mb)
Winds: calm
Visibility: 1.55 miles (2.49 km)
Ceiling: 10000 feet AGL
Clouds: broken clouds at 10000 feet AGL
Weather: HZ  (haze)

METAR text: VEAT 190300Z 00000KT 2500 HZ BKN100 26/21 Q1013 NOSIG
Conditions at: VEAT (AGARTALA , IN) observed 0300 UTC 19 March 2019
Temperature: 26.0°C (79°F)
Dewpoint: 21.0°C (70°F) [RH = 74%]
Pressure (altimeter): 29.91 inches Hg (1013.0 mb)
Winds: calm
Visibility: 1.55 miles (2.49 km)
Ceiling: 10000 feet AGL
Clouds: broken clouds at 10000 feet AGL
Weather: HZ  (haze)

METAR text: VEAT 190230Z 00000KT 2000 BR SCT100 24/21 Q1012 NOSIG
Conditions at: VEAT (AGARTALA , IN) observed 0230 UTC 19 March 2019
Temperature: 24.0°C (75°F)
Dewpoint: 21.0°C (70°F) [RH = 83%]
Pressure (altimeter): 29.88 inches Hg (1012.0 mb)
Winds: calm
Visibility: 1.24 miles (2.00 km)
Ceiling: at least 12,000 feet AGL
Clouds: scattered clouds at 10000 feet AGL
Weather: BR  (mist)

METAR text: VEAT 190200Z 00000KT 1200 BR BKN100 23/20 Q1012 BECMG 1500 BR
Conditions at: VEAT (AGARTALA , IN) observed 0200 UTC 19 March 2019
Temperature: 23.0°C (73°F)
Dewpoint: 20.0°C (68°F) [RH = 83%]
Pressure (altimeter): 29.88 inches Hg (1012.0 mb)
Winds: calm
Visibility: 0.75 miles (1.21 km)
Ceiling: 10000 feet AGL
Clouds: broken clouds at 10000 feet AGL
Weather: BR  (mist)

METAR text: VEAT 190000Z 00000KT 1200 BR FEW020 20/19 Q1011 NOSIG
Conditions at: VEAT (AGARTALA , IN) observed 0000 UTC 19 March 2019
Temperature: 20.0°C (68°F)
Dewpoint: 19.0°C (66°F) [RH = 94%]
Pressure (altimeter): 29.85 inches Hg (1011.0 mb)
Winds: calm
Visibility: 0.75 miles (1.21 km)
Ceiling: at least 12,000 feet AGL
Clouds: few clouds at 2000 feet AGL
Weather: BR  (mist)

METAR text: VEAT 181400Z 00000KT 4000 BR SCT020 24/22 Q1011 NOSIG
Conditions at: VEAT (AGARTALA , IN) observed 1400 UTC 18 March 2019
Temperature: 24.0°C (75°F)
Dewpoint: 22.0°C (72°F) [RH = 89%]
Pressure (altimeter): 29.85 inches Hg (1011.0 mb)
Winds: calm
Visibility: 2.49 miles (4.01 km)
Ceiling: at least 12,000 feet AGL
Clouds: scattered clouds at 2000 feet AGL
Weather: BR  (mist)

METAR text: VEAT 181330Z 00000KT 4000 BR FEW020 25/22 Q1011 NOSIG
Conditions at: VEAT (AGARTALA , IN) observed 1330 UTC 18 March 2019
Temperature: 25.0°C (77°F)
Dewpoint: 22.0°C (72°F) [RH = 83%]
Pressure (altimeter): 29.85 inches Hg (1011.0 mb)
Winds: calm
Visibility: 2.49 miles (4.01 km)
Ceiling: at least 12,000 feet AGL
Clouds: few clouds at 2000 feet AGL
Weather: BR  (mist)

METAR text: VEAT 181300Z 00000KT 4000 BR FEW020 26/22 Q1011 NOSIG
Conditions at: VEAT (AGARTALA , IN) observed 1300 UTC 18 March 2019
Temperature: 26.0°C (79°F)
Dewpoint: 22.0°C (72°F) [RH = 79%]
Pressure (altimeter): 29.85 inches Hg (1011.0 mb)
Winds: calm
Visibility: 2.49 miles (4.01 km)
Ceiling: at least 12,000 feet AGL
Clouds: few clouds at 2000 feet AGL
Weather: BR  (mist)

METAR text: VEAT 181230Z 00000KT 4000 BR FEW020 27/23 Q1011 NOSIG
Conditions at: VEAT (AGARTALA , IN) observed 1230 UTC 18 March 2019
Temperature: 27.0°C (81°F)
Dewpoint: 23.0°C (73°F) [RH = 79%]
Pressure (altimeter): 29.85 inches Hg (1011.0 mb)
Winds: calm
Visibility: 2.49 miles (4.01 km)
Ceiling: at least 12,000 feet AGL
Clouds: few clouds at 2000 feet AGL
Weather: BR  (mist)

METAR text: VEAT 181200Z 00000KT 4000 BR FEW020 28/23 Q1011 NOSIG
Conditions at: VEAT (AGARTALA , IN) observed 1200 UTC 18 March 2019
Temperature: 28.0°C (82°F)
Dewpoint: 23.0°C (73°F) [RH = 74%]
Pressure (altimeter): 29.85 inches Hg (1011.0 mb)
Winds: calm
Visibility: 2.49 miles (4.01 km)
Ceiling: at least 12,000 feet AGL
Clouds: few clouds at 2000 feet AGL
Weather: BR  (mist)

METAR text: VEAT 181130Z 00000KT 4000 BR FEW020 26/22 Q1011 NOSIG
Conditions at: VEAT (AGARTALA , IN) observed 1130 UTC 18 March 2019
Temperature: 26.0°C (79°F)
Dewpoint: 22.0°C (72°F) [RH = 79%]
Pressure (altimeter): 29.85 inches Hg (1011.0 mb)
Winds: calm
Visibility: 2.49 miles (4.01 km)
Ceiling: at least 12,000 feet AGL
Clouds: few clouds at 2000 feet AGL
Weather: BR  (mist)

METAR text: VEAT 181100Z 00000KT 4000 HZ FEW020 BKN100 27/22 Q1011 NOSIG
Conditions at: VEAT (AGARTALA , IN) observed 1100 UTC 18 March 2019
Temperature: 27.0°C (81°F)
Dewpoint: 22.0°C (72°F) [RH = 74%]
Pressure (altimeter): 29.85 inches Hg (1011.0 mb)
Winds: calm
Visibility: 2.49 miles (4.01 km)
Ceiling: 10000 feet AGL
Clouds: few clouds at 2000 feet AGL
broken clouds at 10000 feet AGL
Weather: HZ  (haze)

METAR text: VEAT 181030Z 00000KT 4000 HZ FEW020 BKN100 27/22 Q1011 NOSIG
Conditions at: VEAT (AGARTALA , IN) observed 1030 UTC 18 March 2019
Temperature: 27.0°C (81°F)
Dewpoint: 22.0°C (72°F) [RH = 74%]
Pressure (altimeter): 29.85 inches Hg (1011.0 mb)
Winds: calm
Visibility: 2.49 miles (4.01 km)
Ceiling: 10000 feet AGL
Clouds: few clouds at 2000 feet AGL
broken clouds at 10000 feet AGL
Weather: HZ  (haze)

METAR text: VEAT 181000Z 00000KT 4000 HZ SCT018 BKN100 28/22 Q1011 NOSIG
Conditions at: VEAT (AGARTALA , IN) observed 1000 UTC 18 March 2019
Temperature: 28.0°C (82°F)
Dewpoint: 22.0°C (72°F) [RH = 70%]
Pressure (altimeter): 29.85 inches Hg (1011.0 mb)
Winds: calm
Visibility: 2.49 miles (4.01 km)
Ceiling: 10000 feet AGL
Clouds: scattered clouds at 1800 feet AGL
broken clouds at 10000 feet AGL
Weather: HZ  (haze)

METAR text: VEAT 180930Z 00000KT 4000 HZ SCT018 BKN100 28/22 Q1011 NOSIG
Conditions at: VEAT (AGARTALA , IN) observed 0930 UTC 18 March 2019
Temperature: 28.0°C (82°F)
Dewpoint: 22.0°C (72°F) [RH = 70%]
Pressure (altimeter): 29.85 inches Hg (1011.0 mb)
Winds: calm
Visibility: 2.49 miles (4.01 km)
Ceiling: 10000 feet AGL
Clouds: scattered clouds at 1800 feet AGL
broken clouds at 10000 feet AGL
Weather: HZ  (haze)

METAR text: VEAT 180900Z 00000KT 4000 HZ SCT018 BKN100 29/22 Q1012 NOSIG
Conditions at: VEAT (AGARTALA , IN) observed 0900 UTC 18 March 2019
Temperature: 29.0°C (84°F)
Dewpoint: 22.0°C (72°F) [RH = 66%]
Pressure (altimeter): 29.88 inches Hg (1012.0 mb)
Winds: calm
Visibility: 2.49 miles (4.01 km)
Ceiling: 10000 feet AGL
Clouds: scattered clouds at 1800 feet AGL
broken clouds at 10000 feet AGL
Weather: HZ  (haze)

METAR text: VEAT 180830Z 00000KT 4000 HZ SCT018 BKN100 29/19 Q1013 NOSIG
Conditions at: VEAT (AGARTALA , IN) observed 0830 UTC 18 March 2019
Temperature: 29.0°C (84°F)
Dewpoint: 19.0°C (66°F) [RH = 55%]
Pressure (altimeter): 29.91 inches Hg (1013.0 mb)
Winds: calm
Visibility: 2.49 miles (4.01 km)
Ceiling: 10000 feet AGL
Clouds: scattered clouds at 1800 feet AGL
broken clouds at 10000 feet AGL
Weather: HZ  (haze)

METAR text: VEAT 180800Z 30004KT 4500 HZ FEW018 BKN100 29/19 Q1013 NOSIG
Conditions at: VEAT (AGARTALA , IN) observed 0800 UTC 18 March 2019
Temperature: 29.0°C (84°F)
Dewpoint: 19.0°C (66°F) [RH = 55%]
Pressure (altimeter): 29.91 inches Hg (1013.0 mb)
Winds: from the WNW (300 degrees) at 5 MPH (4 knots; 2.1 m/s)
Visibility: 2.80 miles (4.51 km)
Ceiling: 10000 feet AGL
Clouds: few clouds at 1800 feet AGL
broken clouds at 10000 feet AGL
Weather: HZ  (haze)

METAR text: VEAT 180730Z 26004KT 5000 HZ FEW018 BKN100 29/19 Q1014 NOSIG
Conditions at: VEAT (AGARTALA , IN) observed 0730 UTC 18 March 2019
Temperature: 29.0°C (84°F)
Dewpoint: 19.0°C (66°F) [RH = 55%]
Pressure (altimeter): 29.94 inches Hg (1014.0 mb)
Winds: from the W (260 degrees) at 5 MPH (4 knots; 2.1 m/s)
Visibility: 3 miles ( 5 km)
Ceiling: 10000 feet AGL
Clouds: few clouds at 1800 feet AGL
broken clouds at 10000 feet AGL
Weather: HZ  (haze)

METAR text: VEAT 180700Z 26003KT 5000 HZ FEW018 BKN100 29/19 Q1014 NOSIG
Conditions at: VEAT (AGARTALA , IN) observed 0700 UTC 18 March 2019
Temperature: 29.0°C (84°F)
Dewpoint: 19.0°C (66°F) [RH = 55%]
Pressure (altimeter): 29.94 inches Hg (1014.0 mb)
Winds: from the W (260 degrees) at 3 MPH (3 knots; 1.5 m/s)
Visibility: 3 miles ( 5 km)
Ceiling: 10000 feet AGL
Clouds: few clouds at 1800 feet AGL
broken clouds at 10000 feet AGL
Weather: HZ  (haze)

METAR text: VEAT 180630Z 30003KT 5000 HZ FEW018 BKN100 29/19 Q1015 NOSIG
Conditions at: VEAT (AGARTALA , IN) observed 0630 UTC 18 March 2019
Temperature: 29.0°C (84°F)
Dewpoint: 19.0°C (66°F) [RH = 55%]
Pressure (altimeter): 29.97 inches Hg (1015.0 mb)
Winds: from the WNW (300 degrees) at 3 MPH (3 knots; 1.5 m/s)
Visibility: 3 miles ( 5 km)
Ceiling: 10000 feet AGL
Clouds: few clouds at 1800 feet AGL
broken clouds at 10000 feet AGL
Weather: HZ  (haze)

METAR text: VEAT 180600Z 28005KT 5000 HZ FEW018 BKN100 29/19 Q1015 NOSIG
Conditions at: VEAT (AGARTALA , IN) observed 0600 UTC 18 March 2019
Temperature: 29.0°C (84°F)
Dewpoint: 19.0°C (66°F) [RH = 55%]
Pressure (altimeter): 29.97 inches Hg (1015.0 mb)
Winds: from the W (280 degrees) at 6 MPH (5 knots; 2.6 m/s)
Visibility: 3 miles ( 5 km)
Ceiling: 10000 feet AGL
Clouds: few clouds at 1800 feet AGL
broken clouds at 10000 feet AGL
Weather: HZ  (haze)

METAR text: VEAT 180530Z 00000KT 4000 HZ FEW018 BKN100 27/20 Q1015 BECMG 5000 HZ
Conditions at: VEAT (AGARTALA , IN) observed 0530 UTC 18 March 2019
Temperature: 27.0°C (81°F)
Dewpoint: 20.0°C (68°F) [RH = 66%]
Pressure (altimeter): 29.97 inches Hg (1015.0 mb)
Winds: calm
Visibility: 2.49 miles (4.01 km)
Ceiling: 10000 feet AGL
Clouds: few clouds at 1800 feet AGL
broken clouds at 10000 feet AGL
Weather: HZ  (haze)

METAR text: VEAT 180500Z 00000KT 4000 HZ FEW018 BKN100 27/20 Q1015 NOSIG
Conditions at: VEAT (AGARTALA , IN) observed 0500 UTC 18 March 2019
Temperature: 27.0°C (81°F)
Dewpoint: 20.0°C (68°F) [RH = 66%]
Pressure (altimeter): 29.97 inches Hg (1015.0 mb)
Winds: calm
Visibility: 2.49 miles (4.01 km)
Ceiling: 10000 feet AGL
Clouds: few clouds at 1800 feet AGL
broken clouds at 10000 feet AGL
Weather: HZ  (haze)

METAR text: VEAT 180430Z 00000KT 4000 HZ FEW018 BKN100 26/20 Q1015 NOSIG
Conditions at: VEAT (AGARTALA , IN) observed 0430 UTC 18 March 2019
Temperature: 26.0°C (79°F)
Dewpoint: 20.0°C (68°F) [RH = 70%]
Pressure (altimeter): 29.97 inches Hg (1015.0 mb)
Winds: calm
Visibility: 2.49 miles (4.01 km)
Ceiling: 10000 feet AGL
Clouds: few clouds at 1800 feet AGL
broken clouds at 10000 feet AGL
Weather: HZ  (haze)

METAR text: VEAT 180400Z 00000KT 4000 HZ FEW018 BKN100 26/20 Q1016 NOSIG
Conditions at: VEAT (AGARTALA , IN) observed 0400 UTC 18 March 2019
Temperature: 26.0°C (79°F)
Dewpoint: 20.0°C (68°F) [RH = 70%]
Pressure (altimeter): 30.00 inches Hg (1016.0 mb)
Winds: calm
Visibility: 2.49 miles (4.01 km)
Ceiling: 10000 feet AGL
Clouds: few clouds at 1800 feet AGL
broken clouds at 10000 feet AGL
Weather: HZ  (haze)

METAR text: VEAT 180330Z 00000KT 3500 HZ FEW018 BKN100 24/19 Q1016 NOSIG
Conditions at: VEAT (AGARTALA , IN) observed 0330 UTC 18 March 2019
Temperature: 24.0°C (75°F)
Dewpoint: 19.0°C (66°F) [RH = 74%]
Pressure (altimeter): 30.00 inches Hg (1016.0 mb)
Winds: calm
Visibility: 2.17 miles (3.49 km)
Ceiling: 10000 feet AGL
Clouds: few clouds at 1800 feet AGL
broken clouds at 10000 feet AGL
Weather: HZ  (haze)

METAR text: VEAT 180300Z 00000KT 3500 BR SCT018 BKN100 23/19 Q1016 NOSIG
Conditions at: VEAT (AGARTALA , IN) observed 0300 UTC 18 March 2019
Temperature: 23.0°C (73°F)
Dewpoint: 19.0°C (66°F) [RH = 78%]
Pressure (altimeter): 30.00 inches Hg (1016.0 mb)
Winds: calm
Visibility: 2.17 miles (3.49 km)
Ceiling: 10000 feet AGL
Clouds: scattered clouds at 1800 feet AGL
broken clouds at 10000 feet AGL
Weather: BR  (mist)

METAR text: VEAT 180230Z 00000KT 4000 BR FEW018 BKN100 23/20 Q1015 NOSIG
Conditions at: VEAT (AGARTALA , IN) observed 0230 UTC 18 March 2019
Temperature: 23.0°C (73°F)
Dewpoint: 20.0°C (68°F) [RH = 83%]
Pressure (altimeter): 29.97 inches Hg (1015.0 mb)
Winds: calm
Visibility: 2.49 miles (4.01 km)
Ceiling: 10000 feet AGL
Clouds: few clouds at 1800 feet AGL
broken clouds at 10000 feet AGL
Weather: BR  (mist)

METAR text: VEAT 180200Z 00000KT 4000 BR FEW018 BKN100 22/19 Q1015 NOSIG
Conditions at: VEAT (AGARTALA , IN) observed 0200 UTC 18 March 2019
Temperature: 22.0°C (72°F)
Dewpoint: 19.0°C (66°F) [RH = 83%]
Pressure (altimeter): 29.97 inches Hg (1015.0 mb)
Winds: calm
Visibility: 2.49 miles (4.01 km)
Ceiling: 10000 feet AGL
Clouds: few clouds at 1800 feet AGL
broken clouds at 10000 feet AGL
Weather: BR  (mist)

METAR text: VEAT 180100Z 00000KT 4000 BR SCT018 BKN100 21/19 Q1015 NOSIG
Conditions at: VEAT (AGARTALA , IN) observed 0100 UTC 18 March 2019
Temperature: 21.0°C (70°F)
Dewpoint: 19.0°C (66°F) [RH = 88%]
Pressure (altimeter): 29.97 inches Hg (1015.0 mb)
Winds: calm
Visibility: 2.49 miles (4.01 km)
Ceiling: 10000 feet AGL
Clouds: scattered clouds at 1800 feet AGL
broken clouds at 10000 feet AGL
Weather: BR  (mist)

METAR text: VEAT 180000Z 00000KT 4000 BR SCT018 SCT100 20/19 Q1014 NOSIG
Conditions at: VEAT (AGARTALA , IN) observed 0000 UTC 18 March 2019
Temperature: 20.0°C (68°F)
Dewpoint: 19.0°C (66°F) [RH = 94%]
Pressure (altimeter): 29.94 inches Hg (1014.0 mb)
Winds: calm
Visibility: 2.49 miles (4.01 km)
Ceiling: at least 12,000 feet AGL
Clouds: scattered clouds at 1800 feet AGL
scattered clouds at 10000 feet AGL
Weather: BR  (mist)

Forecast for: VEAT (AGARTALA , IN)
Text: TAF VEAT 190500Z 1906/1915 23003KT 5000 HZ FEW020 SCT100
Forecast period: 0600 to 1500 UTC 19 March 2019
Forecast type: FROM: standard forecast or significant change
Winds: from the SW (230 degrees) at 3 MPH (3 knots; 1.5 m/s)
Visibility: 3 miles (5 km)
Ceiling: at least 12,000 feet AGL
Clouds: few clouds at 2000 feet AGL
scattered clouds at 10000 feet AGL
Weather: HZ  (haze)